IPLVEN5 History tables / reports. Script index.php

Sélectionnez une autre période ( cacher cette zone )

Les unités Période Période personnalisée Directement à
métriques impériales les deux
par jour par semaine mensuel annuel
utiliser les deux sélecteurs de date pour une période personnalisée
précédent Jour
Avec cette date

Les graphiques de WeatherUnderground pour cette période ( cliquez ici ) Le chargement du graphique peut prendre jusqu'à une minute!


par jour Résumé pour Lundi 29 Nov 2021
Heure Temp. ( °C ) Pt. de rosée ( °C ) Vent ( km/h ) Direction Rafale ( km/h ) Pression baro ( hPa ) Humid.( % ) Intensité ( mm ) Solaire ( W/m2 )
Élevé8,2 6,0 41,0 NO ( 912/2384 ) 62,0 1007,5 91 10 38.4
Moyenne6,4 4,3 21,1 NO #34/113 31,3 1003,3 86 20 17 #11/113
Basse5,2 2,9 6,0   7,0 1000,3 79 -  
par jour Détails du tableau pour Lundi 29 Nov 2021
Heure Temp. ( °C ) Pt. de rosée ( °C ) Vent ( km/h ) Direction Rafale ( km/h ) Pression baro ( hPa ) Humid.( % ) Intensité ( mm ) Solaire ( W/m2 )
00:04 6,4 4,7 22,0 ONO 33,0 1000,3 89 - -
00:09 6,6 5,1 26,0 NO 35,0 1000,3 90 - -
00:14 6,8 5,4 31,0 NO 55,0 1000,3 91 - -
00:19 6,9 5,5 39,0 NO 53,0 1000,4 91 - -
00:24 6,9 5,5 41,0 NO 53,0 1000,5 91 0,61 -
00:29 6,9 5,5 28,0 NO 53,0 1000,6 91 1,19 -
00:34 6,8 5,4 17,0 NO 26,0 1000,7 91 1,80 -
00:39 6,5 5,0 30,0 NO 42,0 1000,4 90 1,80 -
00:44 6,4 5,0 26,0 NO 40,0 1000,5 91 0,61 -
00:49 6,6 5,2 33,0 NO 44,0 1000,4 91 0,61 -
00:54 6,8 5,4 33,0 NO 48,0 1000,5 91 - -
00:59 7,1 5,7 41,0 NO 62,0 1000,5 91 - -
01:04 7,2 5,7 35,0 NO 52,0 1000,3 91 - -
01:09 7,2 5,7 26,0 ONO 35,0 1000,3 90 - -
01:14 7,3 5,8 29,0 NO 48,0 1000,4 90 - -
01:19 7,5 5,8 24,0 NO 37,0 1000,4 89 - -
01:24 7,6 5,9 23,0 NNO 37,0 1000,4 89 - -
01:29 7,7 6,0 25,0 NO 42,0 1000,4 89 - -
01:34 7,8 5,9 33,0 NNO 44,0 1000,4 88 - -
01:39 7,9 6,0 27,0 NO 33,0 1000,8 88 - -
01:44 8,0 6,0 24,0 NNO 37,0 1000,5 87 - -
01:49 8,0 6,0 24,0 NO 40,0 1000,7 87 - -
01:54 8,1 5,9 36,0 NNO 52,0 1000,7 86 - -
01:59 8,2 6,0 18,0 NNO 37,0 1000,7 86 - -
02:04 8,1 5,9 22,0 North 40,0 1001,0 86 - -
02:09 8,1 5,9 20,0 North 31,0 1001,1 86 - -
02:14 8,0 5,8 24,0 NNE 33,0 1001,2 86 - -
02:19 8,0 5,6 21,0 NNO 33,0 1001,0 85 - -
02:24 7,9 5,5 25,0 NNO 30,0 1001,2 85 - -
02:29 7,8 5,3 18,0 NO 30,0 1001,4 84 - -
02:34 7,7 5,2 22,0 NO 37,0 1001,4 84 - -
02:39 7,7 5,2 24,0 NO 40,0 1001,3 84 - -
02:44 7,7 5,2 26,0 NNO 35,0 1001,5 84 - -
02:49 7,7 5,0 23,0 NO 30,0 1001,4 83 - -
02:54 7,6 4,9 25,0 NO 39,0 1001,6 83 - -
02:59 7,6 4,9 28,0 NO 40,0 1001,8 83 - -
03:04 7,5 4,8 24,0 NO 40,0 1001,9 83 - -
03:09 7,5 4,6 31,0 NNO 40,0 1001,7 82 - -
03:14 7,4 4,5 26,0 NNO 42,0 1002,0 82 - -
03:19 7,3 4,4 28,0 NO 44,0 1001,9 82 - -
03:24 7,2 4,2 23,0 NO 31,0 1001,8 81 - -
03:29 7,1 4,1 25,0 NO 31,0 1001,8 81 - -
03:34 7,0 4,0 28,0 NO 39,0 1002,1 81 - -
03:39 6,9 3,7 25,0 NNO 35,0 1002,0 80 - -
03:44 6,9 3,5 25,0 NO 44,0 1002,1 79 - -
03:49 6,9 3,5 27,0 NO 35,0 1002,0 79 - -
03:54 6,9 3,7 28,0 NNO 42,0 1002,2 80 - -
03:59 6,9 3,7 21,0 NO 35,0 1002,2 80 - -
04:04 7,1 4,1 24,0 NO 35,0 1002,3 81 - -
04:09 7,1 4,1 20,0 NO 30,0 1002,4 81 - -
04:14 7,2 4,3 20,0 North 37,0 1002,4 82 - -
04:19 7,2 4,3 18,0 NO 37,0 1002,5 82 - -
04:24 7,2 4,3 16,0 Ouest 30,0 1002,6 82 - -
04:29 7,2 4,7 21,0 North 30,0 1002,8 84 - -
04:34 7,2 4,8 22,0 NE 37,0 1002,8 85 - -
04:39 7,0 4,7 25,0 NE 39,0 1002,8 86 - -
04:44 6,8 4,6 19,0 NE 30,0 1003,0 86 - -
04:49 6,6 4,4 24,0 NE 42,0 1003,1 86 - -
04:54 6,4 4,3 24,0 NE 42,0 1003,1 87 - -
04:59 6,2 4,2 27,0 NE 35,0 1003,3 87 - -
05:04 6,1 4,1 19,0 NE 30,0 1003,2 87 - -
05:09 6,0 4,0 19,0 NE 28,0 1003,5 87 - -
05:14 5,9 4,0 28,0 NE 31,0 1003,7 88 - -
05:19 5,8 4,0 19,0 NE 30,0 1003,6 88 - -
05:24 5,8 4,0 23,0 NE 33,0 1003,6 88 - -
05:29 5,7 3,9 25,0 NE 33,0 1003,8 88 - -
05:34 5,6 3,8 25,0 NE 35,0 1004,1 88 - -
05:39 5,6 3,8 26,0 NE 39,0 1004,1 88 - -
05:44 5,6 3,8 24,0 NE 39,0 1004,0 88 - -
05:49 5,5 3,7 17,0 NE 28,0 1004,0 88 - -
05:54 5,5 3,7 22,0 NE 28,0 1004,2 88 - -
05:59 5,4 3,6 19,0 NE 26,0 1004,3 88 - -
06:04 5,4 3,6 21,0 NE 28,0 1004,3 88 - -
06:09 5,3 3,6 19,0 NE 24,0 1004,5 89 - -
06:14 5,3 3,6 19,0 NE 24,0 1004,5 89 - -
06:19 5,2 3,5 21,0 ENE 28,0 1004,8 89 - -
06:24 5,2 3,5 15,0 NE 28,0 1004,8 89 - -
06:29 5,2 3,5 18,0 NE 24,0 1005,0 89 - -
06:34 5,2 3,5 14,0 NE 24,0 1005,0 89 - -
06:39 5,2 3,4 17,0 NE 24,0 1005,0 88 - -
06:44 5,2 3,4 18,0 ENE 24,0 1005,0 88 - -
06:49 5,2 3,4 14,0 NE 24,0 1005,0 88 - -
06:54 5,2 3,4 15,0 NE 20,0 1005,3 88 - -
06:59 5,2 3,2 17,0 ENE 24,0 1005,2 87 - -
07:04 5,3 3,3 17,0 ENE 30,0 1005,4 87 - -
07:08 5,3 3,3 16,0 ENE 20,0 1005,4 87 - -
07:14 5,3 3,3 18,0 NE 24,0 1005,5 87 - -
07:19 5,3 3,3 19,0 ENE 24,0 1005,7 87 - -
07:24 5,4 3,4 16,0 ENE 24,0 1005,7 87 - -
07:29 5,4 3,4 17,0 NE 20,0 1005,9 87 - -
07:34 5,3 3,2 16,0 NE 20,0 1006,0 86 - -
07:39 5,3 3,2 13,0 ENE 20,0 1005,9 86 - -
07:44 5,3 3,2 15,0 ENE 22,0 1006,0 86 - -
07:49 5,3 3,2 15,0 NE 22,0 1006,0 86 - -
07:54 5,3 3,2 14,0 ENE 22,0 1006,1 86 - -
07:59 5,3 3,2 16,0 ENE 22,0 1006,2 86 - -
08:04 5,3 3,2 16,0 ENE 20,0 1006,3 86 - -
08:09 5,3 3,0 15,0 NE 20,0 1006,2 85 - -
08:14 5,3 3,0 13,0 Est 18,0 1006,4 85 - -
08:19 5,3 3,0 12,0 ENE 15,0 1006,5 85 - -
08:24 5,2 2,9 13,0 ENE 17,0 1006,5 85 - -
08:29 5,2 2,9 11,0 ENE 15,0 1006,7 85 - -
08:34 5,3 3,0 10,0 ENE 15,0 1006,8 85 - 1
08:39 5,3 3,0 9,0 ENE 13,0 1006,6 85 - 2.1
08:42 5,3 3,0 9,0 ENE 13,0 1006,8 85 - 5.2
08:54 5,5 3,2 7,0 ENE 18,0 1007,2 85 - 9.3
08:59 5,6 3,3 10,0 NE 15,0 1007,0 85 - 12.5
09:04 5,7 3,4 12,0 ENE 17,0 1007,0 85 - 22.9
09:09 6,0 3,7 6,0 ENE 9,0 1007,1 85 - 25
09:14 6,2 3,9 9,0 Est 11,0 1007,3 85 - 22.9
09:19 6,4 4,0 12,0 ENE 17,0 1007,5 85 - 27
09:24 6,4 3,9 7,0 ENE 11,0 1007,4 84 - 25
09:29 6,3 3,8 7,0 ENE 7,0 1007,4 84 - 38.4
par jour Résumé pour Lundi 29 Nov 2021
Heure Temp. ( °C ) Pt. de rosée ( °C ) Vent ( km/h ) Direction Rafale ( km/h ) Pression baro ( hPa ) Humid.( % ) Intensité ( mm ) Solaire ( W/m2 )
Élevé8,2 6,0 41,0 NO ( 912/2384 ) 62,0 1007,5 91 10 38.4
Moyenne6,4 4,3 21,1 NO #34/113 31,3 1003,3 86 20 17 #11/113
Basse5,2 2,9 6,0   7,0 1000,3 79 -  
par jour Détails du tableau pour Lundi 29 Nov 2021
Heure Temp. ( °C ) Pt. de rosée ( °C ) Vent ( km/h ) Direction Rafale ( km/h ) Pression baro ( hPa ) Humid.( % ) Intensité ( mm ) Solaire ( W/m2 )
00:04 6,4 4,7 22,0 ONO 33,0 1000,3 89 - -
00:09 6,6 5,1 26,0 NO 35,0 1000,3 90 - -
00:14 6,8 5,4 31,0 NO 55,0 1000,3 91 - -
00:19 6,9 5,5 39,0 NO 53,0 1000,4 91 - -
00:24 6,9 5,5 41,0 NO 53,0 1000,5 91 0,61 -
00:29 6,9 5,5 28,0 NO 53,0 1000,6 91 1,19 -
00:34 6,8 5,4 17,0 NO 26,0 1000,7 91 1,80 -
00:39 6,5 5,0 30,0 NO 42,0 1000,4 90 1,80 -
00:44 6,4 5,0 26,0 NO 40,0 1000,5 91 0,61 -
00:49 6,6 5,2 33,0 NO 44,0 1000,4 91 0,61 -
00:54 6,8 5,4 33,0 NO 48,0 1000,5 91 - -
00:59 7,1 5,7 41,0 NO 62,0 1000,5 91 - -
01:04 7,2 5,7 35,0 NO 52,0 1000,3 91 - -
01:09 7,2 5,7 26,0 ONO 35,0 1000,3 90 - -
01:14 7,3 5,8 29,0 NO 48,0 1000,4 90 - -
01:19 7,5 5,8 24,0 NO 37,0 1000,4 89 - -
01:24 7,6 5,9 23,0 NNO 37,0 1000,4 89 - -
01:29 7,7 6,0 25,0 NO 42,0 1000,4 89 - -
01:34 7,8 5,9 33,0 NNO 44,0 1000,4 88 - -
01:39 7,9 6,0 27,0 NO 33,0 1000,8 88 - -
01:44 8,0 6,0 24,0 NNO 37,0 1000,5 87 - -
01:49 8,0 6,0 24,0 NO 40,0 1000,7 87 - -
01:54 8,1 5,9 36,0 NNO 52,0 1000,7 86 - -
01:59 8,2 6,0 18,0 NNO 37,0 1000,7 86 - -
02:04 8,1 5,9 22,0 North 40,0 1001,0 86 - -
02:09 8,1 5,9 20,0 North 31,0 1001,1 86 - -
02:14 8,0 5,8 24,0 NNE 33,0 1001,2 86 - -
02:19 8,0 5,6 21,0 NNO 33,0 1001,0 85 - -
02:24 7,9 5,5 25,0 NNO 30,0 1001,2 85 - -
02:29 7,8 5,3 18,0 NO 30,0 1001,4 84 - -
02:34 7,7 5,2 22,0 NO 37,0 1001,4 84 - -
02:39 7,7 5,2 24,0 NO 40,0 1001,3 84 - -
02:44 7,7 5,2 26,0 NNO 35,0 1001,5 84 - -
02:49 7,7 5,0 23,0 NO 30,0 1001,4 83 - -
02:54 7,6 4,9 25,0 NO 39,0 1001,6 83 - -
02:59 7,6 4,9 28,0 NO 40,0 1001,8 83 - -
03:04 7,5 4,8 24,0 NO 40,0 1001,9 83 - -
03:09 7,5 4,6 31,0 NNO 40,0 1001,7 82 - -
03:14 7,4 4,5 26,0 NNO 42,0 1002,0 82 - -
03:19 7,3 4,4 28,0 NO 44,0 1001,9 82 - -
03:24 7,2 4,2 23,0 NO 31,0 1001,8 81 - -
03:29 7,1 4,1 25,0 NO 31,0 1001,8 81 - -
03:34 7,0 4,0 28,0 NO 39,0 1002,1 81 - -
03:39 6,9 3,7 25,0 NNO 35,0 1002,0 80 - -
03:44 6,9 3,5 25,0 NO 44,0 1002,1 79 - -
03:49 6,9 3,5 27,0 NO 35,0 1002,0 79 - -
03:54 6,9 3,7 28,0 NNO 42,0 1002,2 80 - -
03:59 6,9 3,7 21,0 NO 35,0 1002,2 80 - -
04:04 7,1 4,1 24,0 NO 35,0 1002,3 81 - -
04:09 7,1 4,1 20,0 NO 30,0 1002,4 81 - -
04:14 7,2 4,3 20,0 North 37,0 1002,4 82 - -
04:19 7,2 4,3 18,0 NO 37,0 1002,5 82 - -
04:24 7,2 4,3 16,0 Ouest 30,0 1002,6 82 - -
04:29 7,2 4,7 21,0 North 30,0 1002,8 84 - -
04:34 7,2 4,8 22,0 NE 37,0 1002,8 85 - -
04:39 7,0 4,7 25,0 NE 39,0 1002,8 86 - -
04:44 6,8 4,6 19,0 NE 30,0 1003,0 86 - -
04:49 6,6 4,4 24,0 NE 42,0 1003,1 86 - -
04:54 6,4 4,3 24,0 NE 42,0 1003,1 87 - -
04:59 6,2 4,2 27,0 NE 35,0 1003,3 87 - -
05:04 6,1 4,1 19,0 NE 30,0 1003,2 87 - -
05:09 6,0 4,0 19,0 NE 28,0 1003,5 87 - -
05:14 5,9 4,0 28,0 NE 31,0 1003,7 88 - -
05:19 5,8 4,0 19,0 NE 30,0 1003,6 88 - -
05:24 5,8 4,0 23,0 NE 33,0 1003,6 88 - -
05:29 5,7 3,9 25,0 NE 33,0 1003,8 88 - -
05:34 5,6 3,8 25,0 NE 35,0 1004,1 88 - -
05:39 5,6 3,8 26,0 NE 39,0 1004,1 88 - -
05:44 5,6 3,8 24,0 NE 39,0 1004,0 88 - -
05:49 5,5 3,7 17,0 NE 28,0 1004,0 88 - -
05:54 5,5 3,7 22,0 NE 28,0 1004,2 88 - -
05:59 5,4 3,6 19,0 NE 26,0 1004,3 88 - -
06:04 5,4 3,6 21,0 NE 28,0 1004,3 88 - -
06:09 5,3 3,6 19,0 NE 24,0 1004,5 89 - -
06:14 5,3 3,6 19,0 NE 24,0 1004,5 89 - -
06:19 5,2 3,5 21,0 ENE 28,0 1004,8 89 - -
06:24 5,2 3,5 15,0 NE 28,0 1004,8 89 - -
06:29 5,2 3,5 18,0 NE 24,0 1005,0 89 - -
06:34 5,2 3,5 14,0 NE 24,0 1005,0 89 - -
06:39 5,2 3,4 17,0 NE 24,0 1005,0 88 - -
06:44 5,2 3,4 18,0 ENE 24,0 1005,0 88 - -
06:49 5,2 3,4 14,0 NE 24,0 1005,0 88 - -
06:54 5,2 3,4 15,0 NE 20,0 1005,3 88 - -
06:59 5,2 3,2 17,0 ENE 24,0 1005,2 87 - -
07:04 5,3 3,3 17,0 ENE 30,0 1005,4 87 - -
07:08 5,3 3,3 16,0 ENE 20,0 1005,4 87 - -
07:14 5,3 3,3 18,0 NE 24,0 1005,5 87 - -
07:19 5,3 3,3 19,0 ENE 24,0 1005,7 87 - -
07:24 5,4 3,4 16,0 ENE 24,0 1005,7 87 - -
07:29 5,4 3,4 17,0 NE 20,0 1005,9 87 - -
07:34 5,3 3,2 16,0 NE 20,0 1006,0 86 - -
07:39 5,3 3,2 13,0 ENE 20,0 1005,9 86 - -
07:44 5,3 3,2 15,0 ENE 22,0 1006,0 86 - -
07:49 5,3 3,2 15,0 NE 22,0 1006,0 86 - -
07:54 5,3 3,2 14,0 ENE 22,0 1006,1 86 - -
07:59 5,3 3,2 16,0 ENE 22,0 1006,2 86 - -
08:04 5,3 3,2 16,0 ENE 20,0 1006,3 86 - -
08:09 5,3 3,0 15,0 NE 20,0 1006,2 85 - -
08:14 5,3 3,0 13,0 Est 18,0 1006,4 85 - -
08:19 5,3 3,0 12,0 ENE 15,0 1006,5 85 - -
08:24 5,2 2,9 13,0 ENE 17,0 1006,5 85 - -
08:29 5,2 2,9 11,0 ENE 15,0 1006,7 85 - -
08:34 5,3 3,0 10,0 ENE 15,0 1006,8 85 - 1
08:39 5,3 3,0 9,0 ENE 13,0 1006,6 85 - 2.1
08:42 5,3 3,0 9,0 ENE 13,0 1006,8 85 - 5.2
08:54 5,5 3,2 7,0 ENE 18,0 1007,2 85 - 9.3
08:59 5,6 3,3 10,0 NE 15,0 1007,0 85 - 12.5
09:04 5,7 3,4 12,0 ENE 17,0 1007,0 85 - 22.9
09:09 6,0 3,7 6,0 ENE 9,0 1007,1 85 - 25
09:14 6,2 3,9 9,0 Est 11,0 1007,3 85 - 22.9
09:19 6,4 4,0 12,0 ENE 17,0 1007,5 85 - 27
09:24 6,4 3,9 7,0 ENE 11,0 1007,4 84 - 25
09:29 6,3 3,8 7,0 ENE 7,0 1007,4 84 - 38.4

Téléchargez votre copie de cet ensemble de données  à partir de WeatherUnderground

Nos données météo stockées sur Weather Underground. Script développé par Jim McMurry. Réécrit pour l'utilisation du modèle Leuven-Template